sensor_id;sensor_type;location;lat;lon;timestamp;P1;durP1;ratioP1;P2;durP2;ratioP2
82396;SDS011;72034;51.426;7.534;2024-01-25T05:02:28;41.25;;;7.30;;
82396;SDS011;72034;51.426;7.534;2024-01-25T05:05:37;34.58;;;7.47;;
82396;SDS011;72034;51.426;7.534;2024-01-25T05:08:21;34.90;;;7.72;;
82396;SDS011;72034;51.426;7.534;2024-01-25T05:11:10;34.60;;;7.00;;
82396;SDS011;72034;51.426;7.534;2024-01-25T05:14:14;38.80;;;7.55;;
82396;SDS011;72034;51.426;7.534;2024-01-25T05:16:59;42.05;;;7.43;;
82396;SDS011;72034;51.426;7.534;2024-01-25T05:22:51;37.00;;;8.25;;
82396;SDS011;72034;51.426;7.534;2024-01-25T05:25:18;30.75;;;8.00;;
82396;SDS011;72034;51.426;7.534;2024-01-25T05:27:49;34.75;;;8.15;;
82396;SDS011;72034;51.426;7.534;2024-01-25T05:38:26;33.33;;;7.95;;
82396;SDS011;72034;51.426;7.534;2024-01-25T05:40:52;40.10;;;8.50;;
82396;SDS011;72034;51.426;7.534;2024-01-25T05:43:17;37.20;;;7.68;;
82396;SDS011;72034;51.426;7.534;2024-01-25T05:45:43;30.80;;;7.45;;
82396;SDS011;72034;51.426;7.534;2024-01-25T05:48:08;36.03;;;7.15;;
82396;SDS011;72034;51.426;7.534;2024-01-25T05:50:34;32.70;;;7.65;;
82396;SDS011;72034;51.426;7.534;2024-01-25T05:52:59;30.15;;;7.32;;
82396;SDS011;72034;51.426;7.534;2024-01-25T05:55:24;33.13;;;8.07;;
82396;SDS011;72034;51.426;7.534;2024-01-25T05:57:49;41.03;;;8.40;;
82396;SDS011;72034;51.426;7.534;2024-01-25T06:00:15;36.20;;;7.60;;
82396;SDS011;72034;51.426;7.534;2024-01-25T06:02:41;37.92;;;8.48;;
82396;SDS011;72034;51.426;7.534;2024-01-25T06:05:06;34.35;;;9.13;;
82396;SDS011;72034;51.426;7.534;2024-01-25T06:07:32;39.15;;;7.93;;
82396;SDS011;72034;51.426;7.534;2024-01-25T06:09:58;46.20;;;8.93;;
82396;SDS011;72034;51.426;7.534;2024-01-25T06:12:23;37.63;;;8.20;;
82396;SDS011;72034;51.426;7.534;2024-01-25T06:14:48;37.97;;;8.05;;
82396;SDS011;72034;51.426;7.534;2024-01-25T06:17:14;48.15;;;8.80;;
82396;SDS011;72034;51.426;7.534;2024-01-25T06:19:39;39.90;;;7.93;;
82396;SDS011;72034;51.426;7.534;2024-01-25T06:22:04;44.05;;;8.73;;
82396;SDS011;72034;51.426;7.534;2024-01-25T06:24:29;42.50;;;9.13;;
82396;SDS011;72034;51.426;7.534;2024-01-25T06:26:55;34.35;;;8.23;;
82396;SDS011;72034;51.426;7.534;2024-01-25T06:29:20;37.95;;;7.45;;
82396;SDS011;72034;51.426;7.534;2024-01-25T06:31:45;33.45;;;7.13;;
82396;SDS011;72034;51.426;7.534;2024-01-25T06:34:11;40.08;;;8.05;;
82396;SDS011;72034;51.426;7.534;2024-01-25T06:36:37;43.45;;;8.55;;
82396;SDS011;72034;51.426;7.534;2024-01-25T06:39:02;34.38;;;8.38;;
82396;SDS011;72034;51.426;7.534;2024-01-25T06:41:29;43.63;;;9.07;;
82396;SDS011;72034;51.426;7.534;2024-01-25T06:43:55;47.30;;;9.13;;
82396;SDS011;72034;51.426;7.534;2024-01-25T06:46:20;38.70;;;9.32;;
82396;SDS011;72034;51.426;7.534;2024-01-25T06:48:45;45.80;;;9.63;;
82396;SDS011;72034;51.426;7.534;2024-01-25T06:51:11;41.23;;;9.33;;
82396;SDS011;72034;51.426;7.534;2024-01-25T06:53:36;40.97;;;8.13;;
82396;SDS011;72034;51.426;7.534;2024-01-25T06:56:02;44.72;;;9.95;;
82396;SDS011;72034;51.426;7.534;2024-01-25T06:58:27;34.28;;;9.05;;
82396;SDS011;72034;51.426;7.534;2024-01-25T07:00:53;46.03;;;9.20;;
82396;SDS011;72034;51.426;7.534;2024-01-25T07:03:18;49.55;;;9.45;;
82396;SDS011;72034;51.426;7.534;2024-01-25T07:05:43;45.87;;;10.57;;
82396;SDS011;72034;51.426;7.534;2024-01-25T07:08:09;49.30;;;9.50;;
82396;SDS011;72034;51.426;7.534;2024-01-25T07:10:38;43.30;;;9.67;;
82396;SDS011;72034;51.426;7.534;2024-01-25T07:13:07;44.07;;;10.30;;
82396;SDS011;72034;51.426;7.534;2024-01-25T07:15:32;43.67;;;9.43;;
82396;SDS011;72034;51.426;7.534;2024-01-25T07:17:57;45.38;;;9.43;;
82396;SDS011;72034;51.426;7.534;2024-01-25T07:20:23;39.67;;;10.88;;
82396;SDS011;72034;51.426;7.534;2024-01-25T07:22:48;40.20;;;10.32;;
82396;SDS011;72034;51.426;7.534;2024-01-25T07:25:13;49.63;;;9.75;;
82396;SDS011;72034;51.426;7.534;2024-01-25T07:27:39;46.58;;;11.07;;
82396;SDS011;72034;51.426;7.534;2024-01-25T07:30:04;44.95;;;10.55;;
82396;SDS011;72034;51.426;7.534;2024-01-25T07:32:30;39.50;;;10.15;;
82396;SDS011;72034;51.426;7.534;2024-01-25T07:34:57;30.85;;;9.32;;
82396;SDS011;72034;51.426;7.534;2024-01-25T07:37:22;38.63;;;9.48;;
82396;SDS011;72034;51.426;7.534;2024-01-25T07:39:48;44.47;;;9.98;;
82396;SDS011;72034;51.426;7.534;2024-01-25T07:42:13;50.15;;;10.57;;
82396;SDS011;72034;51.426;7.534;2024-01-25T07:44:38;48.57;;;10.17;;
82396;SDS011;72034;51.426;7.534;2024-01-25T07:47:04;38.07;;;9.07;;
82396;SDS011;72034;51.426;7.534;2024-01-25T07:49:29;49.75;;;10.52;;
82396;SDS011;72034;51.426;7.534;2024-01-25T07:51:54;37.97;;;9.80;;
82396;SDS011;72034;51.426;7.534;2024-01-25T07:54:21;45.13;;;11.00;;
82396;SDS011;72034;51.426;7.534;2024-01-25T07:56:47;52.00;;;12.73;;
82396;SDS011;72034;51.426;7.534;2024-01-25T07:59:12;48.73;;;12.40;;
82396;SDS011;72034;51.426;7.534;2024-01-25T08:01:38;51.92;;;13.90;;
82396;SDS011;72034;51.426;7.534;2024-01-25T08:04:03;47.30;;;13.20;;
82396;SDS011;72034;51.426;7.534;2024-01-25T08:06:28;48.22;;;16.10;;
82396;SDS011;72034;51.426;7.534;2024-01-25T08:08:54;47.25;;;16.05;;
82396;SDS011;72034;51.426;7.534;2024-01-25T08:11:22;54.60;;;17.80;;
82396;SDS011;72034;51.426;7.534;2024-01-25T08:13:48;55.80;;;17.27;;
82396;SDS011;72034;51.426;7.534;2024-01-25T08:16:14;64.32;;;21.63;;
82396;SDS011;72034;51.426;7.534;2024-01-25T08:18:44;58.50;;;20.08;;
82396;SDS011;72034;51.426;7.534;2024-01-25T08:21:10;60.75;;;20.73;;
82396;SDS011;72034;51.426;7.534;2024-01-25T08:23:36;58.80;;;20.67;;
82396;SDS011;72034;51.426;7.534;2024-01-25T08:26:02;57.47;;;20.83;;
82396;SDS011;72034;51.426;7.534;2024-01-25T08:28:27;58.95;;;21.85;;
82396;SDS011;72034;51.426;7.534;2024-01-25T08:30:52;60.80;;;21.52;;
82396;SDS011;72034;51.426;7.534;2024-01-25T08:33:18;59.53;;;22.00;;
82396;SDS011;72034;51.426;7.534;2024-01-25T08:35:43;68.10;;;22.13;;
82396;SDS011;72034;51.426;7.534;2024-01-25T08:38:08;64.40;;;23.15;;
82396;SDS011;72034;51.426;7.534;2024-01-25T08:40:34;62.80;;;23.40;;
82396;SDS011;72034;51.426;7.534;2024-01-25T08:42:59;70.72;;;22.90;;
82396;SDS011;72034;51.426;7.534;2024-01-25T08:45:24;69.30;;;24.92;;
82396;SDS011;72034;51.426;7.534;2024-01-25T08:47:50;62.85;;;22.60;;
82396;SDS011;72034;51.426;7.534;2024-01-25T08:50:16;67.03;;;24.48;;
82396;SDS011;72034;51.426;7.534;2024-01-25T08:52:42;63.92;;;24.98;;
82396;SDS011;72034;51.426;7.534;2024-01-25T08:55:07;52.80;;;24.02;;
82396;SDS011;72034;51.426;7.534;2024-01-25T08:57:34;62.78;;;25.35;;
82396;SDS011;72034;51.426;7.534;2024-01-25T09:00:00;79.05;;;25.90;;
82396;SDS011;72034;51.426;7.534;2024-01-25T09:02:26;66.25;;;25.05;;
82396;SDS011;72034;51.426;7.534;2024-01-25T09:04:52;68.22;;;24.83;;
82396;SDS011;72034;51.426;7.534;2024-01-25T09:07:18;58.83;;;24.77;;
82396;SDS011;72034;51.426;7.534;2024-01-25T09:09:44;74.45;;;25.13;;
82396;SDS011;72034;51.426;7.534;2024-01-25T09:12:09;71.13;;;26.83;;
82396;SDS011;72034;51.426;7.534;2024-01-25T09:14:36;60.53;;;25.80;;
82396;SDS011;72034;51.426;7.534;2024-01-25T09:17:01;54.45;;;24.70;;
82396;SDS011;72034;51.426;7.534;2024-01-25T09:19:27;64.38;;;27.30;;
82396;SDS011;72034;51.426;7.534;2024-01-25T09:21:52;75.35;;;26.63;;
82396;SDS011;72034;51.426;7.534;2024-01-25T09:24:17;73.63;;;27.40;;
82396;SDS011;72034;51.426;7.534;2024-01-25T09:26:43;71.70;;;25.70;;
82396;SDS011;72034;51.426;7.534;2024-01-25T09:29:08;59.65;;;25.65;;
82396;SDS011;72034;51.426;7.534;2024-01-25T09:31:34;68.15;;;27.50;;
82396;SDS011;72034;51.426;7.534;2024-01-25T09:33:59;69.00;;;27.65;;
82396;SDS011;72034;51.426;7.534;2024-01-25T09:36:25;60.13;;;25.88;;
82396;SDS011;72034;51.426;7.534;2024-01-25T09:38:50;61.75;;;26.13;;
82396;SDS011;72034;51.426;7.534;2024-01-25T09:41:15;64.32;;;26.20;;
82396;SDS011;72034;51.426;7.534;2024-01-25T09:43:40;56.35;;;25.85;;
82396;SDS011;72034;51.426;7.534;2024-01-25T09:46:06;59.63;;;24.45;;
82396;SDS011;72034;51.426;7.534;2024-01-25T09:48:32;60.22;;;23.05;;
82396;SDS011;72034;51.426;7.534;2024-01-25T09:50:57;54.65;;;20.73;;
82396;SDS011;72034;51.426;7.534;2024-01-25T09:53:24;43.90;;;19.63;;
82396;SDS011;72034;51.426;7.534;2024-01-25T09:56:06;53.83;;;19.90;;
82396;SDS011;72034;51.426;7.534;2024-01-25T10:01:10;55.38;;;21.33;;
82396;SDS011;72034;51.426;7.534;2024-01-25T10:03:37;50.80;;;20.83;;
82396;SDS011;72034;51.426;7.534;2024-01-25T10:06:05;46.63;;;18.83;;
82396;SDS011;72034;51.426;7.534;2024-01-25T10:08:30;52.33;;;17.67;;
82396;SDS011;72034;51.426;7.534;2024-01-25T10:10:56;44.40;;;17.70;;
82396;SDS011;72034;51.426;7.534;2024-01-25T10:13:21;46.28;;;18.38;;
82396;SDS011;72034;51.426;7.534;2024-01-25T10:15:47;47.15;;;19.17;;
82396;SDS011;72034;51.426;7.534;2024-01-25T10:18:13;56.20;;;18.83;;
82396;SDS011;72034;51.426;7.534;2024-01-25T10:20:39;45.92;;;18.77;;
82396;SDS011;72034;51.426;7.534;2024-01-25T10:23:07;54.70;;;19.17;;
82396;SDS011;72034;51.426;7.534;2024-01-25T10:25:33;49.85;;;16.13;;
82396;SDS011;72034;51.426;7.534;2024-01-25T10:28:06;45.30;;;17.00;;
82396;SDS011;72034;51.426;7.534;2024-01-25T10:30:32;45.60;;;16.75;;
82396;SDS011;72034;51.426;7.534;2024-01-25T10:32:58;44.22;;;15.02;;
82396;SDS011;72034;51.426;7.534;2024-01-25T10:35:24;37.05;;;13.82;;
82396;SDS011;72034;51.426;7.534;2024-01-25T10:37:50;42.47;;;13.57;;
82396;SDS011;72034;51.426;7.534;2024-01-25T10:40:16;39.60;;;13.63;;
82396;SDS011;72034;51.426;7.534;2024-01-25T10:42:43;41.70;;;13.45;;
82396;SDS011;72034;51.426;7.534;2024-01-25T10:45:08;40.15;;;13.32;;
82396;SDS011;72034;51.426;7.534;2024-01-25T10:47:34;41.53;;;13.32;;
82396;SDS011;72034;51.426;7.534;2024-01-25T10:50:00;39.78;;;13.95;;
82396;SDS011;72034;51.426;7.534;2024-01-25T10:52:27;50.53;;;13.63;;
82396;SDS011;72034;51.426;7.534;2024-01-25T10:54:53;42.95;;;12.65;;
82396;SDS011;72034;51.426;7.534;2024-01-25T10:57:18;44.63;;;14.82;;
82396;SDS011;72034;51.426;7.534;2024-01-25T10:59:44;39.40;;;12.13;;
82396;SDS011;72034;51.426;7.534;2024-01-25T11:02:09;43.83;;;12.45;;
82396;SDS011;72034;51.426;7.534;2024-01-25T11:04:34;38.50;;;13.43;;
82396;SDS011;72034;51.426;7.534;2024-01-25T11:07:06;38.92;;;12.13;;
82396;SDS011;72034;51.426;7.534;2024-01-25T11:09:36;39.95;;;13.57;;
82396;SDS011;72034;51.426;7.534;2024-01-25T11:12:08;45.90;;;14.30;;
82396;SDS011;72034;51.426;7.534;2024-01-25T11:14:36;42.00;;;13.60;;
82396;SDS011;72034;51.426;7.534;2024-01-25T11:17:14;36.58;;;13.38;;
82396;SDS011;72034;51.426;7.534;2024-01-25T11:19:40;44.25;;;13.63;;
82396;SDS011;72034;51.426;7.534;2024-01-25T11:22:05;39.08;;;13.52;;
82396;SDS011;72034;51.426;7.534;2024-01-25T11:24:31;46.35;;;14.32;;
82396;SDS011;72034;51.426;7.534;2024-01-25T11:27:02;36.55;;;14.45;;
82396;SDS011;72034;51.426;7.534;2024-01-25T11:29:29;40.15;;;13.93;;
82396;SDS011;72034;51.426;7.534;2024-01-25T11:31:55;45.13;;;13.73;;
82396;SDS011;72034;51.426;7.534;2024-01-25T11:34:21;42.00;;;14.02;;
82396;SDS011;72034;51.426;7.534;2024-01-25T11:36:47;44.83;;;14.48;;
82396;SDS011;72034;51.426;7.534;2024-01-25T11:39:13;36.15;;;13.98;;
82396;SDS011;72034;51.426;7.534;2024-01-25T11:41:40;46.35;;;15.63;;
82396;SDS011;72034;51.426;7.534;2024-01-25T11:44:07;38.85;;;13.55;;
82396;SDS011;72034;51.426;7.534;2024-01-25T11:46:32;36.25;;;12.45;;
82396;SDS011;72034;51.426;7.534;2024-01-25T11:48:58;36.75;;;11.90;;
82396;SDS011;72034;51.426;7.534;2024-01-25T11:51:23;36.00;;;13.25;;
82396;SDS011;72034;51.426;7.534;2024-01-25T11:53:48;33.92;;;12.75;;
82396;SDS011;72034;51.426;7.534;2024-01-25T11:56:17;41.42;;;12.73;;
82396;SDS011;72034;51.426;7.534;2024-01-25T11:58:45;46.35;;;13.35;;
82396;SDS011;72034;51.426;7.534;2024-01-25T12:01:12;40.55;;;12.48;;
82396;SDS011;72034;51.426;7.534;2024-01-25T12:03:38;38.88;;;12.90;;
82396;SDS011;72034;51.426;7.534;2024-01-25T12:06:04;37.47;;;11.90;;
82396;SDS011;72034;51.426;7.534;2024-01-25T12:08:31;39.17;;;12.75;;
82396;SDS011;72034;51.426;7.534;2024-01-25T12:11:04;33.40;;;11.30;;
82396;SDS011;72034;51.426;7.534;2024-01-25T12:13:34;36.55;;;11.13;;
82396;SDS011;72034;51.426;7.534;2024-01-25T12:16:01;34.78;;;10.73;;
82396;SDS011;72034;51.426;7.534;2024-01-25T12:18:28;31.33;;;10.73;;
82396;SDS011;72034;51.426;7.534;2024-01-25T12:20:54;34.00;;;10.23;;
82396;SDS011;72034;51.426;7.534;2024-01-25T12:23:20;32.92;;;10.32;;
82396;SDS011;72034;51.426;7.534;2024-01-25T12:25:45;37.20;;;10.45;;
82396;SDS011;72034;51.426;7.534;2024-01-25T12:28:10;33.75;;;10.65;;
82396;SDS011;72034;51.426;7.534;2024-01-25T12:30:36;35.63;;;9.77;;
82396;SDS011;72034;51.426;7.534;2024-01-25T12:33:01;33.33;;;9.05;;
82396;SDS011;72034;51.426;7.534;2024-01-25T12:35:27;35.13;;;9.38;;
82396;SDS011;72034;51.426;7.534;2024-01-25T12:37:52;32.65;;;9.02;;
82396;SDS011;72034;51.426;7.534;2024-01-25T12:40:17;28.58;;;8.88;;
82396;SDS011;72034;51.426;7.534;2024-01-25T12:42:43;32.15;;;8.25;;
82396;SDS011;72034;51.426;7.534;2024-01-25T12:45:08;33.22;;;9.43;;
82396;SDS011;72034;51.426;7.534;2024-01-25T12:47:34;32.70;;;8.75;;
82396;SDS011;72034;51.426;7.534;2024-01-25T12:49:59;39.53;;;8.65;;
82396;SDS011;72034;51.426;7.534;2024-01-25T12:52:25;29.70;;;7.80;;
82396;SDS011;72034;51.426;7.534;2024-01-25T12:54:50;34.92;;;8.50;;
82396;SDS011;72034;51.426;7.534;2024-01-25T12:59:50;35.92;;;8.40;;
82396;SDS011;72034;51.426;7.534;2024-01-25T13:02:16;27.75;;;8.43;;
82396;SDS011;72034;51.426;7.534;2024-01-25T13:04:41;35.72;;;7.93;;
82396;SDS011;72034;51.426;7.534;2024-01-25T13:07:06;38.13;;;9.60;;
82396;SDS011;72034;51.426;7.534;2024-01-25T13:09:32;38.30;;;9.23;;
82396;SDS011;72034;51.426;7.534;2024-01-25T13:11:59;28.90;;;8.40;;
82396;SDS011;72034;51.426;7.534;2024-01-25T13:14:25;28.45;;;7.97;;
82396;SDS011;72034;51.426;7.534;2024-01-25T13:16:51;28.42;;;8.13;;
82396;SDS011;72034;51.426;7.534;2024-01-25T13:19:16;27.15;;;7.45;;
82396;SDS011;72034;51.426;7.534;2024-01-25T13:21:41;29.23;;;8.45;;
82396;SDS011;72034;51.426;7.534;2024-01-25T13:24:07;31.67;;;7.43;;
82396;SDS011;72034;51.426;7.534;2024-01-25T13:26:33;28.00;;;8.40;;
82396;SDS011;72034;51.426;7.534;2024-01-25T13:29:00;28.63;;;7.43;;
82396;SDS011;72034;51.426;7.534;2024-01-25T13:31:25;29.10;;;7.38;;
82396;SDS011;72034;51.426;7.534;2024-01-25T13:33:51;31.98;;;7.65;;
82396;SDS011;72034;51.426;7.534;2024-01-25T13:36:16;33.85;;;7.90;;
82396;SDS011;72034;51.426;7.534;2024-01-25T13:38:41;30.58;;;7.13;;
82396;SDS011;72034;51.426;7.534;2024-01-25T13:41:07;30.58;;;8.00;;
82396;SDS011;72034;51.426;7.534;2024-01-25T13:43:32;32.78;;;7.78;;
82396;SDS011;72034;51.426;7.534;2024-01-25T13:45:57;27.33;;;6.95;;
82396;SDS011;72034;51.426;7.534;2024-01-25T13:48:23;32.67;;;8.38;;
82396;SDS011;72034;51.426;7.534;2024-01-25T13:50:48;30.17;;;7.72;;
82396;SDS011;72034;51.426;7.534;2024-01-25T13:53:14;30.55;;;8.95;;
82396;SDS011;72034;51.426;7.534;2024-01-25T13:55:39;26.95;;;7.72;;
82396;SDS011;72034;51.426;7.534;2024-01-25T13:58:05;30.52;;;8.98;;
82396;SDS011;72034;51.426;7.534;2024-01-25T14:00:30;39.67;;;9.43;;
82396;SDS011;72034;51.426;7.534;2024-01-25T14:02:55;33.47;;;8.23;;
82396;SDS011;72034;51.426;7.534;2024-01-25T14:05:20;39.20;;;9.02;;
82396;SDS011;72034;51.426;7.534;2024-01-25T14:07:46;34.22;;;8.48;;
82396;SDS011;72034;51.426;7.534;2024-01-25T14:10:11;36.05;;;9.25;;
82396;SDS011;72034;51.426;7.534;2024-01-25T14:12:37;37.28;;;9.02;;
82396;SDS011;72034;51.426;7.534;2024-01-25T14:15:02;32.65;;;8.95;;
82396;SDS011;72034;51.426;7.534;2024-01-25T14:17:28;29.35;;;8.68;;
82396;SDS011;72034;51.426;7.534;2024-01-25T14:19:54;33.65;;;8.70;;
82396;SDS011;72034;51.426;7.534;2024-01-25T14:22:19;32.78;;;8.88;;
82396;SDS011;72034;51.426;7.534;2024-01-25T14:24:45;35.85;;;8.73;;
82396;SDS011;72034;51.426;7.534;2024-01-25T14:27:11;36.03;;;8.95;;
82396;SDS011;72034;51.426;7.534;2024-01-25T14:29:37;27.75;;;8.23;;
82396;SDS011;72034;51.426;7.534;2024-01-25T14:32:02;38.63;;;9.50;;
82396;SDS011;72034;51.426;7.534;2024-01-25T14:34:27;31.48;;;8.52;;
82396;SDS011;72034;51.426;7.534;2024-01-25T14:36:53;32.30;;;9.73;;
82396;SDS011;72034;51.426;7.534;2024-01-25T14:39:18;34.47;;;9.48;;
82396;SDS011;72034;51.426;7.534;2024-01-25T14:41:44;36.03;;;10.35;;
82396;SDS011;72034;51.426;7.534;2024-01-25T14:44:09;27.95;;;8.38;;
82396;SDS011;72034;51.426;7.534;2024-01-25T14:46:35;35.72;;;10.27;;
82396;SDS011;72034;51.426;7.534;2024-01-25T14:49:00;30.48;;;8.65;;
82396;SDS011;72034;51.426;7.534;2024-01-25T14:51:25;29.50;;;8.57;;
82396;SDS011;72034;51.426;7.534;2024-01-25T14:53:51;34.40;;;9.55;;
82396;SDS011;72034;51.426;7.534;2024-01-25T14:56:16;33.03;;;9.48;;
82396;SDS011;72034;51.426;7.534;2024-01-25T14:58:41;33.63;;;10.25;;
82396;SDS011;72034;51.426;7.534;2024-01-25T15:01:07;32.13;;;8.98;;
82396;SDS011;72034;51.426;7.534;2024-01-25T15:03:32;27.52;;;8.18;;
82396;SDS011;72034;51.426;7.534;2024-01-25T15:05:57;28.95;;;10.18;;
82396;SDS011;72034;51.426;7.534;2024-01-25T15:08:23;36.67;;;8.93;;
82396;SDS011;72034;51.426;7.534;2024-01-25T15:10:48;29.42;;;9.35;;
82396;SDS011;72034;51.426;7.534;2024-01-25T15:13:13;37.03;;;9.57;;
82396;SDS011;72034;51.426;7.534;2024-01-25T15:15:39;31.83;;;9.45;;
82396;SDS011;72034;51.426;7.534;2024-01-25T15:18:04;42.05;;;10.10;;
82396;SDS011;72034;51.426;7.534;2024-01-25T15:20:30;35.20;;;10.18;;
82396;SDS011;72034;51.426;7.534;2024-01-25T15:22:56;39.92;;;10.90;;
82396;SDS011;72034;51.426;7.534;2024-01-25T15:25:22;32.40;;;10.00;;
82396;SDS011;72034;51.426;7.534;2024-01-25T15:27:49;31.90;;;10.95;;
82396;SDS011;72034;51.426;7.534;2024-01-25T15:30:16;30.55;;;10.02;;
82396;SDS011;72034;51.426;7.534;2024-01-25T15:32:41;28.85;;;8.60;;
82396;SDS011;72034;51.426;7.534;2024-01-25T15:35:07;34.72;;;9.77;;
82396;SDS011;72034;51.426;7.534;2024-01-25T15:37:33;33.80;;;9.43;;
82396;SDS011;72034;51.426;7.534;2024-01-25T15:39:58;41.05;;;12.10;;
82396;SDS011;72034;51.426;7.534;2024-01-25T15:42:24;33.63;;;9.82;;
82396;SDS011;72034;51.426;7.534;2024-01-25T15:44:55;31.70;;;9.13;;
82396;SDS011;72034;51.426;7.534;2024-01-25T15:47:21;33.05;;;9.52;;
82396;SDS011;72034;51.426;7.534;2024-01-25T15:49:46;34.25;;;9.70;;
82396;SDS011;72034;51.426;7.534;2024-01-25T15:52:11;38.20;;;10.98;;
82396;SDS011;72034;51.426;7.534;2024-01-25T15:54:37;39.05;;;9.80;;
82396;SDS011;72034;51.426;7.534;2024-01-25T15:57:02;30.50;;;9.40;;
82396;SDS011;72034;51.426;7.534;2024-01-25T15:59:33;31.00;;;9.68;;
82396;SDS011;72034;51.426;7.534;2024-01-25T16:01:58;38.22;;;10.15;;
82396;SDS011;72034;51.426;7.534;2024-01-25T16:04:23;42.22;;;10.05;;
82396;SDS011;72034;51.426;7.534;2024-01-25T16:06:48;38.40;;;10.63;;
82396;SDS011;72034;51.426;7.534;2024-01-25T16:09:14;36.33;;;9.90;;
82396;SDS011;72034;51.426;7.534;2024-01-25T16:11:39;38.42;;;10.27;;
82396;SDS011;72034;51.426;7.534;2024-01-25T16:14:04;35.60;;;9.93;;
82396;SDS011;72034;51.426;7.534;2024-01-25T16:16:30;43.88;;;12.05;;
82396;SDS011;72034;51.426;7.534;2024-01-25T16:18:55;32.65;;;9.52;;
82396;SDS011;72034;51.426;7.534;2024-01-25T16:21:20;36.60;;;10.43;;
82396;SDS011;72034;51.426;7.534;2024-01-25T16:23:46;39.33;;;10.68;;
82396;SDS011;72034;51.426;7.534;2024-01-25T16:26:11;36.63;;;9.63;;
82396;SDS011;72034;51.426;7.534;2024-01-25T16:28:37;43.30;;;10.23;;
82396;SDS011;72034;51.426;7.534;2024-01-25T16:31:02;37.35;;;10.27;;
82396;SDS011;72034;51.426;7.534;2024-01-25T16:33:28;32.40;;;10.25;;
82396;SDS011;72034;51.426;7.534;2024-01-25T16:35:53;34.28;;;10.52;;
82396;SDS011;72034;51.426;7.534;2024-01-25T16:38:18;42.75;;;10.63;;
82396;SDS011;72034;51.426;7.534;2024-01-25T16:40:43;33.25;;;10.60;;
82396;SDS011;72034;51.426;7.534;2024-01-25T16:43:09;40.20;;;10.10;;
82396;SDS011;72034;51.426;7.534;2024-01-25T16:45:34;40.35;;;10.35;;
82396;SDS011;72034;51.426;7.534;2024-01-25T16:47:59;39.33;;;10.50;;
82396;SDS011;72034;51.426;7.534;2024-01-25T16:50:25;44.75;;;11.23;;
82396;SDS011;72034;51.426;7.534;2024-01-25T16:52:50;40.17;;;9.80;;
82396;SDS011;72034;51.426;7.534;2024-01-25T16:55:16;37.75;;;9.57;;
82396;SDS011;72034;51.426;7.534;2024-01-25T16:57:42;37.85;;;9.73;;
82396;SDS011;72034;51.426;7.534;2024-01-25T17:00:07;38.42;;;10.13;;
82396;SDS011;72034;51.426;7.534;2024-01-25T17:02:33;36.97;;;10.25;;
82396;SDS011;72034;51.426;7.534;2024-01-25T17:04:58;27.77;;;9.40;;
82396;SDS011;72034;51.426;7.534;2024-01-25T17:07:23;43.22;;;10.77;;
82396;SDS011;72034;51.426;7.534;2024-01-25T17:09:49;37.03;;;9.88;;
82396;SDS011;72034;51.426;7.534;2024-01-25T17:12:15;35.28;;;9.32;;
82396;SDS011;72034;51.426;7.534;2024-01-25T17:14:41;31.75;;;9.13;;
82396;SDS011;72034;51.426;7.534;2024-01-25T17:17:07;41.55;;;10.18;;
82396;SDS011;72034;51.426;7.534;2024-01-25T17:19:33;34.13;;;10.23;;
82396;SDS011;72034;51.426;7.534;2024-01-25T17:21:59;34.45;;;8.77;;
82396;SDS011;72034;51.426;7.534;2024-01-25T17:24:24;25.50;;;8.45;;
82396;SDS011;72034;51.426;7.534;2024-01-25T17:26:49;37.15;;;9.05;;
82396;SDS011;72034;51.426;7.534;2024-01-25T17:29:15;37.63;;;9.05;;
82396;SDS011;72034;51.426;7.534;2024-01-25T17:31:40;35.05;;;9.40;;
82396;SDS011;72034;51.426;7.534;2024-01-25T17:34:05;32.80;;;9.27;;
82396;SDS011;72034;51.426;7.534;2024-01-25T17:36:30;32.97;;;8.73;;
82396;SDS011;72034;51.426;7.534;2024-01-25T17:38:56;32.45;;;8.82;;
82396;SDS011;72034;51.426;7.534;2024-01-25T17:41:21;29.15;;;8.55;;
82396;SDS011;72034;51.426;7.534;2024-01-25T17:43:47;27.70;;;7.72;;
82396;SDS011;72034;51.426;7.534;2024-01-25T17:46:12;24.42;;;8.05;;
82396;SDS011;72034;51.426;7.534;2024-01-25T17:48:37;27.50;;;8.00;;
82396;SDS011;72034;51.426;7.534;2024-01-25T17:51:03;29.70;;;7.53;;
82396;SDS011;72034;51.426;7.534;2024-01-25T17:53:29;24.10;;;7.32;;
82396;SDS011;72034;51.426;7.534;2024-01-25T17:55:55;27.98;;;7.78;;
82396;SDS011;72034;51.426;7.534;2024-01-25T17:58:21;31.67;;;8.32;;
82396;SDS011;72034;51.426;7.534;2024-01-25T18:00:46;29.15;;;8.32;;
82396;SDS011;72034;51.426;7.534;2024-01-25T18:03:12;36.40;;;9.40;;
82396;SDS011;72034;51.426;7.534;2024-01-25T18:05:37;25.15;;;7.40;;
82396;SDS011;72034;51.426;7.534;2024-01-25T18:08:02;25.38;;;7.60;;
82396;SDS011;72034;51.426;7.534;2024-01-25T18:10:28;34.08;;;8.63;;
82396;SDS011;72034;51.426;7.534;2024-01-25T18:12:53;25.88;;;8.57;;
82396;SDS011;72034;51.426;7.534;2024-01-25T18:15:19;29.05;;;7.97;;
82396;SDS011;72034;51.426;7.534;2024-01-25T18:17:44;30.58;;;8.13;;
82396;SDS011;72034;51.426;7.534;2024-01-25T18:20:10;29.25;;;8.32;;
82396;SDS011;72034;51.426;7.534;2024-01-25T18:22:36;22.92;;;6.53;;
82396;SDS011;72034;51.426;7.534;2024-01-25T18:25:02;27.65;;;8.77;;
82396;SDS011;72034;51.426;7.534;2024-01-25T18:27:28;29.25;;;8.77;;
82396;SDS011;72034;51.426;7.534;2024-01-25T18:29:53;33.13;;;8.13;;
82396;SDS011;72034;51.426;7.534;2024-01-25T18:32:18;31.20;;;8.48;;
82396;SDS011;72034;51.426;7.534;2024-01-25T18:34:44;32.08;;;8.57;;
82396;SDS011;72034;51.426;7.534;2024-01-25T18:37:09;34.80;;;8.82;;
82396;SDS011;72034;51.426;7.534;2024-01-25T18:39:34;35.40;;;9.30;;
82396;SDS011;72034;51.426;7.534;2024-01-25T18:42:03;24.08;;;8.23;;
82396;SDS011;72034;51.426;7.534;2024-01-25T18:44:31;23.75;;;8.05;;
82396;SDS011;72034;51.426;7.534;2024-01-25T18:46:57;34.33;;;9.07;;
82396;SDS011;72034;51.426;7.534;2024-01-25T18:49:22;30.83;;;7.80;;
82396;SDS011;72034;51.426;7.534;2024-01-25T18:51:50;31.65;;;7.93;;
82396;SDS011;72034;51.426;7.534;2024-01-25T18:54:16;30.90;;;8.20;;
82396;SDS011;72034;51.426;7.534;2024-01-25T18:56:42;30.10;;;7.88;;
82396;SDS011;72034;51.426;7.534;2024-01-25T18:59:08;32.92;;;8.43;;
82396;SDS011;72034;51.426;7.534;2024-01-25T19:01:36;32.13;;;8.50;;
82396;SDS011;72034;51.426;7.534;2024-01-25T19:04:02;31.95;;;9.93;;
82396;SDS011;72034;51.426;7.534;2024-01-25T19:06:31;38.75;;;14.43;;
82396;SDS011;72034;51.426;7.534;2024-01-25T19:09:02;35.13;;;10.38;;
82396;SDS011;72034;51.426;7.534;2024-01-25T19:11:30;31.10;;;8.88;;
82396;SDS011;72034;51.426;7.534;2024-01-25T19:13:56;27.35;;;8.77;;
82396;SDS011;72034;51.426;7.534;2024-01-25T19:16:21;28.33;;;9.18;;
82396;SDS011;72034;51.426;7.534;2024-01-25T19:18:47;39.10;;;9.57;;
82396;SDS011;72034;51.426;7.534;2024-01-25T19:21:12;33.15;;;9.10;;
82396;SDS011;72034;51.426;7.534;2024-01-25T19:23:38;31.77;;;9.27;;
82396;SDS011;72034;51.426;7.534;2024-01-25T19:26:03;40.78;;;10.13;;
82396;SDS011;72034;51.426;7.534;2024-01-25T19:28:28;34.83;;;9.35;;
82396;SDS011;72034;51.426;7.534;2024-01-25T19:30:56;30.48;;;9.23;;
82396;SDS011;72034;51.426;7.534;2024-01-25T19:33:23;32.33;;;8.02;;
82396;SDS011;72034;51.426;7.534;2024-01-25T19:35:49;39.38;;;9.02;;
82396;SDS011;72034;51.426;7.534;2024-01-25T19:38:18;36.53;;;9.45;;
82396;SDS011;72034;51.426;7.534;2024-01-25T19:40:43;40.28;;;9.25;;